Robins Air Force Base
KWRB : rendu visible

Aérodrome :











RETROUVEZ-NOUS SUR...

 
LOGIN :

S'inscrire | Disclaimer

   EN    FR    IT 

 









Légende :    VFR   VFR Marginal   IFR   IFR Intensif   IFR Très Intensif
Visi : 
Plafond : 
>= 8 km
>= 3000ft
5 à 8 km
1000 à 3000 ft
1500m à 5 km
500 à 1000 ft
800 à 1500m
200 à 500 ft
< 800m
< 200 ft
Symboles :   Orages  Brouillard  Fortes neiges  Fortes précipitations  Vent > 20 kt






- Altitude de l'aérodrome : 294 ft


KWRB - Robins Air Force Base

DERNIER METAR :
  • 191256Z 27004KT 10SM BKN110 08/04 A2989 RMK AO2A SLP124 T00840044

METARs EXPIRÉS :
  • 191156Z 29003KT 10SM SCT110 07/04 A2986 RMK AO2A SLP114 T00710044 10116 20065 52009
  • 191056Z 28004KT 10SM CLR 07/04 A2985 RMK AO2A SLP111 T00740040

TAF TAF KWRB
Valide du 19 à 13h jusqu'au 20 à 19h UTC


191300Z 1913/2019 VRB06KT 9999 BKN100 QNH2987INS
BECMG 1917/1918 28010G15KT 9999 SCT050 QNH2988INS
BECMG 1923/1924 VRB06KT 9999 SKC QNH2995INS TX16/1917Z TN07/2011Z



MET'MAP, la Météo Aéronautique d'un coup d'oeil ! - Copyright ORBIFLY Décembre 2007 - Disclaimer

ORBIFLY MET'MAP TEAM :

Programmation & Développement : Alexandra Zaïnal
Conception & Développement : Baudouin d'Aumeries
Co-Programmation & Développement : Marc-Olivier Méhu
Soutien technique & logistique : Manuel Goepfert

Contact : metmap@orbifly.com




SOURCES & CREDITS :

   NOAA       Earth
Advisory